Time;durP1;ratioP1;P1;durP2;ratioP2;P2;SDS_P1;SDS_P2;PMS_P1;PMS_P2;Temp;Humidity;BMP_temperature;BMP_pressure;BME280_temperature;BME280_humidity;BME280_pressure;Samples;Min_cycle;Max_cycle;Signal;HPM_P1;HPM_P2
2024/03/16 00:02:21;;;;;;;1.57;1.20;;;11.00;98.20;;;;;;4966580;28;20487;-86
2024/03/16 00:04:49;;;;;;;1.50;1.20;;;11.00;98.20;;;;;;4976170;28;20565;-86
2024/03/16 00:07:17;;;;;;;1.50;1.10;;;11.00;98.20;;;;;;4971870;28;20497;-87
2024/03/16 00:09:50;;;;;;;1.53;1.10;;;11.00;98.20;;;;;;4977615;28;20834;-85
2024/03/16 00:12:19;;;;;;;1.50;1.10;;;10.90;98.20;;;;;;4974948;28;20843;-87
2024/03/16 00:14:50;;;;;;;1.50;1.10;;;10.90;98.20;;;;;;4967954;28;20509;-85
2024/03/16 00:17:19;;;;;;;1.57;1.17;;;10.90;98.20;;;;;;4965829;28;20481;-86
2024/03/16 00:19:50;;;;;;;1.50;1.10;;;10.90;98.20;;;;;;4982884;28;20500;-86
2024/03/16 00:22:20;;;;;;;1.87;1.67;;;10.90;98.20;;;;;;4972340;28;20479;-85
2024/03/16 00:25:15;;;;;;;1.50;1.10;;;10.80;98.20;;;;;;4973806;28;20504;-85
2024/03/16 00:27:43;;;;;;;1.60;1.20;;;10.90;98.20;;;;;;4955855;28;20893;-84
2024/03/16 00:30:23;;;;;;;1.50;1.10;;;10.90;98.20;;;;;;4952945;28;20855;-84
2024/03/16 00:33:07;;;;;;;1.50;1.10;;;10.90;98.20;;;;;;4952596;28;20482;-83
2024/03/16 00:36:03;;;;;;;1.50;1.10;;;10.90;98.20;;;;;;5032657;23;20507;-83
2024/03/16 00:49:26;;;;;;;;;;;;;;;;;;;;;
2024/03/16 00:55:33;;;;;;;1.53;1.20;;;11.00;98.20;;;;;;4876808;29;20820;-83
2024/03/16 01:20:31;;;;;;;;;;;;;;;;;;;;;
2024/03/16 01:43:51;;;;;;;1.50;1.10;;;10.80;98.20;;;;;;4890971;29;20854;-83
2024/03/16 01:49:53;;;;;;;1.50;1.10;;;10.80;98.20;;;;;;5001606;28;20483;-85
2024/03/16 01:58:26;;;;;;;1.50;1.10;;;10.80;98.20;;;;;;5008410;22;20538;-82
2024/03/16 02:01:18;;;;;;;1.50;1.00;;;10.80;98.20;;;;;;4962205;28;20473;-83
2024/03/16 02:06:40;;;;;;;1.50;1.00;;;10.80;98.20;;;;;;4959139;28;20561;-83
2024/03/16 02:26:13;;;;;;;1.53;1.10;;;10.90;98.20;;;;;;5009119;28;20497;-84
2024/03/16 02:28:40;;;;;;;1.50;1.00;;;10.80;98.20;;;;;;5016375;28;20830;-84
2024/03/16 02:31:27;;;;;;;;;;;;;;;;;;;;;
2024/03/16 02:34:02;;;;;;;1.50;1.10;;;10.80;98.20;;;;;;5017953;28;20472;-84
2024/03/16 02:59:41;;;;;;;1.53;1.10;;;10.80;98.20;;;;;;4929882;29;20503;-84
2024/03/16 03:05:26;;;;;;;1.50;1.10;;;10.80;98.20;;;;;;4991358;23;20474;-83
2024/03/16 03:08:14;;;;;;;1.50;1.10;;;10.90;98.20;;;;;;4961301;28;20491;-83
2024/03/16 03:43:16;;;;;;;1.50;1.10;;;11.10;98.20;;;;;;1221095;23;20500;-86
2024/03/16 03:45:53;;;;;;;1.50;1.10;;;11.10;98.20;;;;;;4968182;28;20489;-87
2024/03/16 03:49:00;;;;;;;1.50;1.00;;;11.10;98.20;;;;;;4948011;28;20461;-85
2024/03/16 03:51:33;;;;;;;1.50;1.10;;;11.10;98.20;;;;;;4955926;28;20478;-89
2024/03/16 03:54:08;;;;;;;1.50;1.10;;;11.10;98.20;;;;;;4949102;28;20495;-86
2024/03/16 03:57:10;;;;;;;1.50;1.10;;;11.10;98.20;;;;;;4955710;28;20474;-87
2024/03/16 03:59:46;;;;;;;1.50;1.10;;;11.10;98.20;;;;;;4974781;28;20500;-87
2024/03/16 04:02:17;;;;;;;1.50;1.10;;;11.10;98.20;;;;;;4952522;28;20504;-88
2024/03/16 04:04:48;;;;;;;1.50;1.07;;;11.10;98.20;;;;;;4983453;28;20496;-86
2024/03/16 04:07:25;;;;;;;1.53;1.20;;;11.20;98.20;;;;;;4958984;28;21096;-87
2024/03/16 04:09:57;;;;;;;1.50;1.10;;;11.20;98.20;;;;;;4971008;28;20548;-84
2024/03/16 04:12:30;;;;;;;1.50;1.10;;;11.20;98.20;;;;;;4964217;28;20485;-85
2024/03/16 04:15:05;;;;;;;1.50;1.07;;;11.20;98.20;;;;;;4965653;28;20723;-85
2024/03/16 04:17:42;;;;;;;1.53;1.10;;;11.20;98.20;;;;;;4956464;28;20485;-86
2024/03/16 04:20:13;;;;;;;1.50;1.10;;;11.10;98.20;;;;;;4965684;28;20479;-87
2024/03/16 04:23:23;;;;;;;1.50;1.10;;;11.10;98.20;;;;;;4953393;28;20519;-84
2024/03/16 04:25:55;;;;;;;1.50;1.00;;;11.10;98.20;;;;;;4981207;28;20485;-84
2024/03/16 04:28:28;;;;;;;1.50;1.10;;;11.10;98.20;;;;;;4951814;28;20489;-85
2024/03/16 04:30:57;;;;;;;1.50;1.00;;;11.10;98.20;;;;;;4974455;28;20473;-83
2024/03/16 04:33:30;;;;;;;1.50;1.10;;;11.10;98.20;;;;;;4954125;28;20474;-87
2024/03/16 04:35:59;;;;;;;1.60;1.20;;;11.10;98.20;;;;;;4954470;28;20493;-83
2024/03/16 04:38:30;;;;;;;1.50;1.10;;;11.10;98.20;;;;;;4937213;28;20703;-84
2024/03/16 04:41:12;;;;;;;1.50;1.10;;;11.10;98.20;;;;;;4944289;28;20509;-85
2024/03/16 04:43:41;;;;;;;1.50;1.10;;;11.10;98.20;;;;;;4932276;28;20478;-84
2024/03/16 04:46:19;;;;;;;;;;;;;;;;;;;;;
2024/03/16 04:48:47;;;;;;;1.50;1.00;;;11.10;98.20;;;;;;4943128;28;20617;-88
2024/03/16 04:51:25;;;;;;;1.50;1.10;;;11.10;98.20;;;;;;4955294;28;21285;-87
2024/03/16 04:53:52;;;;;;;1.50;1.10;;;11.10;98.20;;;;;;4973454;28;20493;-86
2024/03/16 04:56:19;;;;;;;1.60;1.20;;;11.10;98.20;;;;;;4965533;28;20499;-84
2024/03/16 04:58:46;;;;;;;1.50;1.10;;;11.10;98.20;;;;;;4946165;28;20468;-85
2024/03/16 05:01:13;;;;;;;1.50;1.10;;;11.10;98.20;;;;;;4953548;28;20503;-84
2024/03/16 05:03:40;;;;;;;1.50;1.00;;;11.10;98.20;;;;;;4965314;28;21061;-85
2024/03/16 05:06:07;;;;;;;1.50;1.10;;;11.10;98.20;;;;;;4951750;28;20471;-86
2024/03/16 05:08:34;;;;;;;1.50;1.10;;;11.10;98.20;;;;;;4941636;28;20517;-85
2024/03/16 05:11:01;;;;;;;1.50;1.10;;;11.10;98.20;;;;;;4953508;28;20500;-86
2024/03/16 05:13:28;;;;;;;1.50;1.10;;;11.10;98.20;;;;;;4943297;28;20455;-86
2024/03/16 05:15:55;;;;;;;1.50;1.03;;;11.10;98.20;;;;;;4959778;28;20561;-83
2024/03/16 05:18:22;;;;;;;1.50;1.00;;;11.10;98.20;;;;;;4951429;28;20524;-81
2024/03/16 05:20:51;;;;;;;1.50;1.00;;;11.10;98.20;;;;;;4971684;28;20496;-86
2024/03/16 05:23:19;;;;;;;1.50;1.00;;;11.10;98.20;;;;;;4968114;28;20462;-85
2024/03/16 05:25:53;;;;;;;1.50;1.10;;;11.10;98.20;;;;;;4966896;28;20478;-85
2024/03/16 05:28:20;;;;;;;1.50;1.10;;;11.10;98.20;;;;;;4951673;28;20577;-84
2024/03/16 05:30:47;;;;;;;1.50;1.00;;;11.10;98.20;;;;;;4963998;28;20464;-85
2024/03/16 05:33:15;;;;;;;1.50;1.10;;;11.00;98.20;;;;;;4925702;28;20497;-84
2024/03/16 05:35:41;;;;;;;1.50;1.10;;;11.00;98.20;;;;;;4951331;28;20488;-84
2024/03/16 05:38:08;;;;;;;1.50;1.10;;;11.00;98.20;;;;;;4938193;28;20494;-84
2024/03/16 05:40:35;;;;;;;1.50;1.10;;;11.00;98.20;;;;;;4965788;28;20505;-83
2024/03/16 05:43:02;;;;;;;1.50;1.00;;;11.00;98.20;;;;;;4937476;28;20487;-85
2024/03/16 05:45:29;;;;;;;1.53;1.10;;;11.10;98.20;;;;;;4961269;28;20617;-85
2024/03/16 05:47:56;;;;;;;1.50;1.07;;;11.10;98.20;;;;;;4950997;28;20511;-83
2024/03/16 05:50:23;;;;;;;1.50;1.10;;;11.10;98.20;;;;;;4960089;28;20576;-84
2024/03/16 05:52:51;;;;;;;1.50;1.10;;;11.10;98.20;;;;;;4926131;29;20565;-82
2024/03/16 05:55:18;;;;;;;1.50;1.10;;;11.10;98.20;;;;;;4973283;28;20599;-84
2024/03/16 05:57:45;;;;;;;1.53;1.10;;;11.10;98.20;;;;;;4920182;28;20543;-84
2024/03/16 06:00:14;;;;;;;1.50;1.10;;;11.10;98.20;;;;;;4966636;28;20488;-81
2024/03/16 06:02:41;;;;;;;1.50;1.10;;;11.10;98.20;;;;;;4966612;28;20544;-81
2024/03/16 06:05:09;;;;;;;1.53;1.20;;;11.10;98.20;;;;;;4954445;28;20511;-80
2024/03/16 06:07:36;;;;;;;1.57;1.10;;;11.10;98.20;;;;;;4963798;28;20482;-81
2024/03/16 06:10:03;;;;;;;1.50;1.00;;;11.10;98.20;;;;;;4951704;28;20474;-82
2024/03/16 06:12:30;;;;;;;1.50;1.20;;;11.10;98.20;;;;;;4972344;28;20487;-85
2024/03/16 06:14:57;;;;;;;1.50;1.20;;;11.10;98.20;;;;;;4951886;28;20577;-85
2024/03/16 06:17:26;;;;;;;1.53;1.10;;;11.00;98.20;;;;;;4930909;28;20486;-84
2024/03/16 06:20:10;;;;;;;1.50;1.00;;;11.00;98.20;;;;;;4941586;28;20580;-84
2024/03/16 06:26:03;;;;;;;1.50;1.20;;;10.80;98.20;;;;;;4930003;28;20513;-84
2024/03/16 06:28:36;;;;;;;1.50;1.10;;;10.70;98.20;;;;;;4942910;28;20489;-84
2024/03/16 06:31:13;;;;;;;1.50;1.10;;;10.60;98.20;;;;;;4957561;28;20459;-84
2024/03/16 06:33:45;;;;;;;1.50;1.10;;;10.40;98.20;;;;;;4958411;28;20457;-84
2024/03/16 06:36:12;;;;;;;1.50;1.10;;;10.40;98.20;;;;;;4967944;28;20490;-83
2024/03/16 06:38:40;;;;;;;1.57;1.10;;;10.30;98.20;;;;;;4963536;28;20458;-85
2024/03/16 06:41:12;;;;;;;1.50;1.10;;;10.20;98.20;;;;;;4955370;28;20454;-83
2024/03/16 06:43:40;;;;;;;1.53;1.10;;;10.20;98.20;;;;;;4957559;28;20995;-85
2024/03/16 06:46:10;;;;;;;1.50;1.00;;;10.10;98.20;;;;;;4955075;28;20566;-84
2024/03/16 06:48:37;;;;;;;1.60;1.20;;;10.10;98.20;;;;;;4957895;28;20486;-83
2024/03/16 06:51:15;;;;;;;1.60;1.20;;;10.20;98.20;;;;;;4955113;28;20458;-83
2024/03/16 06:53:42;;;;;;;1.50;1.10;;;10.20;98.20;;;;;;4963840;28;20944;-82
2024/03/16 06:56:09;;;;;;;1.53;1.13;;;10.20;98.20;;;;;;4970506;28;20494;-83
2024/03/16 06:58:36;;;;;;;1.53;1.10;;;10.10;98.20;;;;;;4963814;28;20493;-83
2024/03/16 07:01:04;;;;;;;1.50;1.10;;;10.10;98.20;;;;;;4962758;28;20734;-85
2024/03/16 07:03:36;;;;;;;1.60;1.10;;;10.20;98.20;;;;;;4969881;28;20494;-84
2024/03/16 07:06:05;;;;;;;1.60;1.10;;;10.20;98.20;;;;;;4954642;28;20486;-85
2024/03/16 07:08:36;;;;;;;1.53;1.10;;;10.20;98.20;;;;;;4970629;28;20507;-85
2024/03/16 07:17:26;;;;;;;1.53;1.10;;;10.30;98.20;;;;;;4936799;29;21204;-85
2024/03/16 07:19:55;;;;;;;1.50;1.07;;;10.30;98.20;;;;;;4946169;29;20475;-85
2024/03/16 07:22:22;;;;;;;1.50;1.10;;;10.30;98.20;;;;;;4911767;29;20493;-85
2024/03/16 10:04:27;;;;;;;1.50;1.13;;;10.70;98.20;;;;;;4936484;29;20479;-84
2024/03/16 10:06:56;;;;;;;1.50;1.10;;;10.80;98.20;;;;;;4965102;28;20478;-85
2024/03/16 10:10:15;;;;;;;1.53;1.10;;;11.00;98.20;;;;;;4959040;28;20719;-86
2024/03/16 11:05:56;;;;;;;1.50;1.00;;;11.60;98.20;;;;;;4900646;29;20472;-86
2024/03/16 11:29:16;;;;;;;1.50;1.00;;;11.60;98.20;;;;;;5424977;23;20486;-83
2024/03/16 11:31:42;;;;;;;1.50;1.10;;;11.70;98.20;;;;;;4983565;28;20566;-82
2024/03/16 11:34:09;;;;;;;1.50;1.00;;;11.70;98.20;;;;;;5005175;28;20602;-80
2024/03/16 11:36:38;;;;;;;1.50;1.10;;;11.70;98.20;;;;;;4966038;28;20570;-82
2024/03/16 11:39:12;;;;;;;1.50;1.00;;;11.80;98.20;;;;;;4999459;28;20460;-83
2024/03/16 11:41:53;;;;;;;1.50;1.00;;;11.90;98.20;;;;;;4977016;28;20458;-81
2024/03/16 11:44:20;;;;;;;1.50;1.00;;;11.90;98.20;;;;;;4994597;28;20479;-81
2024/03/16 11:46:47;;;;;;;1.50;0.90;;;11.80;98.20;;;;;;4975905;28;20570;-80
2024/03/16 11:49:17;;;;;;;1.50;1.00;;;11.80;98.20;;;;;;4978494;28;20575;-82
2024/03/16 11:51:43;;;;;;;1.50;1.00;;;11.80;98.20;;;;;;4986713;28;20581;-81
2024/03/16 11:54:18;;;;;;;1.50;1.00;;;11.80;98.20;;;;;;4990017;28;20506;-82
2024/03/16 11:56:44;;;;;;;1.50;1.00;;;11.90;98.20;;;;;;4964107;28;20572;-83
2024/03/16 11:59:13;;;;;;;1.50;1.00;;;11.90;98.20;;;;;;4984110;28;20464;-85
2024/03/16 12:01:39;;;;;;;1.50;1.00;;;11.90;98.20;;;;;;4975900;28;20478;-82
2024/03/16 12:04:06;;;;;;;1.60;1.20;;;11.90;98.20;;;;;;5006144;28;20475;-82
2024/03/16 12:06:33;;;;;;;1.50;1.00;;;11.90;98.20;;;;;;4995120;28;22626;-82
2024/03/16 12:09:01;;;;;;;1.50;1.00;;;11.90;98.20;;;;;;4998011;28;20488;-82
2024/03/16 12:11:28;;;;;;;1.50;1.00;;;11.90;98.20;;;;;;4967856;28;20479;-82
2024/03/16 12:14:10;;;;;;;1.50;1.10;;;11.80;98.20;;;;;;5004493;28;20559;-82
2024/03/16 12:16:37;;;;;;;1.50;1.03;;;11.90;98.20;;;;;;4986343;28;21047;-83
2024/03/16 12:19:04;;;;;;;1.50;1.00;;;11.90;98.20;;;;;;4986308;28;20915;-82
2024/03/16 12:21:31;;;;;;;1.50;1.07;;;12.00;98.20;;;;;;4969950;28;20475;-82
2024/03/16 12:23:59;;;;;;;1.50;1.00;;;12.00;98.20;;;;;;4993809;28;20471;-82
2024/03/16 12:26:27;;;;;;;1.50;1.00;;;12.10;98.20;;;;;;4982877;28;20479;-82
2024/03/16 12:29:07;;;;;;;1.50;1.00;;;12.20;98.20;;;;;;4999300;28;21064;-82
2024/03/16 12:31:33;;;;;;;1.50;1.10;;;12.20;98.20;;;;;;4969560;28;20483;-82
2024/03/16 12:34:00;;;;;;;1.50;1.00;;;12.20;98.20;;;;;;4983991;28;20480;-82
2024/03/16 12:36:26;;;;;;;1.50;1.00;;;12.20;98.20;;;;;;4962659;28;20580;-81
2024/03/16 12:38:53;;;;;;;1.50;1.00;;;12.10;98.20;;;;;;4978996;28;20477;-82
2024/03/16 12:41:19;;;;;;;1.50;1.00;;;12.10;98.20;;;;;;4979445;28;20475;-82
2024/03/16 12:43:46;;;;;;;1.50;1.03;;;12.00;98.20;;;;;;4982615;28;20461;-81
2024/03/16 12:46:15;;;;;;;1.50;1.00;;;12.00;98.20;;;;;;4957557;28;21045;-82
2024/03/16 12:48:42;;;;;;;1.50;1.00;;;12.00;98.20;;;;;;4996413;28;20892;-81
2024/03/16 12:51:09;;;;;;;1.50;1.00;;;12.00;98.20;;;;;;4963217;28;20475;-82
2024/03/16 13:17:24;;;;;;;1.50;1.10;;;11.60;98.20;;;;;;6048800;23;20451;-86
2024/03/16 13:29:30;;;;;;;1.50;1.00;;;11.80;98.20;;;;;;5271228;23;21082;-84
2024/03/16 13:38:13;;;;;;;1.50;1.00;;;11.90;98.20;;;;;;5144817;23;20487;-84
2024/03/16 13:41:00;;;;;;;1.50;1.20;;;12.00;98.20;;;;;;4997008;28;20479;-84
2024/03/16 13:49:54;;;;;;;;;;;;;;;;;;;;;
2024/03/16 16:52:21;;;;;;;1.50;1.10;;;11.10;98.20;;;;;;4893250;28;20487;-82
2024/03/16 16:54:49;;;;;;;1.50;1.10;;;11.10;98.20;;;;;;4894918;29;21027;-82
2024/03/16 16:57:21;;;;;;;1.50;1.00;;;11.00;98.20;;;;;;4865720;29;20547;-82
2024/03/16 17:00:16;;;;;;;1.50;1.10;;;11.00;98.20;;;;;;4888385;29;20489;-83
2024/03/16 17:05:45;;;;;;;1.50;1.00;;;10.90;98.20;;;;;;4861917;29;20614;-83
2024/03/16 17:08:12;;;;;;;1.50;1.10;;;10.80;98.20;;;;;;4854400;29;20500;-83
2024/03/16 17:10:46;;;;;;;1.50;1.10;;;10.80;98.20;;;;;;4890410;29;20478;-82
2024/03/16 17:16:24;;;;;;;1.50;1.10;;;10.70;98.20;;;;;;4867686;29;20487;-82
2024/03/16 17:18:55;;;;;;;1.50;1.10;;;10.60;98.20;;;;;;4891746;29;20959;-82
